sensor_id;sensor_type;location;lat;lon;timestamp;P1;durP1;ratioP1;P2;durP2;ratioP2
3941;SDS011;1985;48.592;8.850;2024-01-06T00:01:47;13.80;;;5.53;;
3941;SDS011;1985;48.592;8.850;2024-01-06T00:04:13;14.20;;;5.30;;
3941;SDS011;1985;48.592;8.850;2024-01-06T00:06:38;13.53;;;4.40;;
3941;SDS011;1985;48.592;8.850;2024-01-06T00:09:04;13.63;;;4.27;;
3941;SDS011;1985;48.592;8.850;2024-01-06T00:11:30;11.82;;;4.10;;
3941;SDS011;1985;48.592;8.850;2024-01-06T00:13:55;12.97;;;4.17;;
3941;SDS011;1985;48.592;8.850;2024-01-06T00:16:21;12.93;;;4.25;;
3941;SDS011;1985;48.592;8.850;2024-01-06T00:18:47;13.43;;;3.70;;
3941;SDS011;1985;48.592;8.850;2024-01-06T00:21:13;13.50;;;4.73;;
3941;SDS011;1985;48.592;8.850;2024-01-06T00:23:42;14.97;;;5.40;;
3941;SDS011;1985;48.592;8.850;2024-01-06T00:26:07;15.20;;;6.00;;
3941;SDS011;1985;48.592;8.850;2024-01-06T00:28:34;15.02;;;5.00;;
3941;SDS011;1985;48.592;8.850;2024-01-06T00:31:00;14.33;;;4.70;;
3941;SDS011;1985;48.592;8.850;2024-01-06T00:33:26;16.27;;;4.10;;
3941;SDS011;1985;48.592;8.850;2024-01-06T00:35:51;13.30;;;4.40;;
3941;SDS011;1985;48.592;8.850;2024-01-06T00:38:17;13.97;;;4.93;;
3941;SDS011;1985;48.592;8.850;2024-01-06T00:40:43;14.73;;;5.22;;
3941;SDS011;1985;48.592;8.850;2024-01-06T00:43:09;17.00;;;5.90;;
3941;SDS011;1985;48.592;8.850;2024-01-06T00:45:35;15.55;;;5.80;;
3941;SDS011;1985;48.592;8.850;2024-01-06T00:48:00;17.40;;;5.60;;
3941;SDS011;1985;48.592;8.850;2024-01-06T00:50:26;17.20;;;5.40;;
3941;SDS011;1985;48.592;8.850;2024-01-06T00:52:51;13.70;;;4.70;;
3941;SDS011;1985;48.592;8.850;2024-01-06T00:55:20;17.30;;;5.45;;
3941;SDS011;1985;48.592;8.850;2024-01-06T00:57:47;17.73;;;6.50;;
3941;SDS011;1985;48.592;8.850;2024-01-06T01:00:13;16.95;;;6.00;;
3941;SDS011;1985;48.592;8.850;2024-01-06T01:02:39;12.30;;;4.60;;
3941;SDS011;1985;48.592;8.850;2024-01-06T01:05:05;13.40;;;4.80;;
3941;SDS011;1985;48.592;8.850;2024-01-06T01:07:32;13.80;;;4.70;;
3941;SDS011;1985;48.592;8.850;2024-01-06T01:09:58;13.50;;;5.00;;
3941;SDS011;1985;48.592;8.850;2024-01-06T01:12:24;13.85;;;4.80;;
3941;SDS011;1985;48.592;8.850;2024-01-06T01:14:50;13.38;;;3.92;;
3941;SDS011;1985;48.592;8.850;2024-01-06T01:17:16;14.10;;;4.05;;
3941;SDS011;1985;48.592;8.850;2024-01-06T01:19:42;12.45;;;4.30;;
3941;SDS011;1985;48.592;8.850;2024-01-06T01:22:08;11.13;;;4.10;;
3941;SDS011;1985;48.592;8.850;2024-01-06T01:24:34;11.65;;;4.25;;
3941;SDS011;1985;48.592;8.850;2024-01-06T01:26:59;13.15;;;4.32;;
3941;SDS011;1985;48.592;8.850;2024-01-06T01:29:25;12.67;;;4.30;;
3941;SDS011;1985;48.592;8.850;2024-01-06T01:31:50;11.93;;;4.05;;
3941;SDS011;1985;48.592;8.850;2024-01-06T01:34:16;13.33;;;4.20;;
3941;SDS011;1985;48.592;8.850;2024-01-06T01:36:42;11.82;;;3.70;;
3941;SDS011;1985;48.592;8.850;2024-01-06T01:39:08;13.33;;;4.43;;
3941;SDS011;1985;48.592;8.850;2024-01-06T01:41:34;12.95;;;4.28;;
3941;SDS011;1985;48.592;8.850;2024-01-06T01:44:00;15.37;;;4.60;;
3941;SDS011;1985;48.592;8.850;2024-01-06T01:46:26;14.25;;;4.20;;
3941;SDS011;1985;48.592;8.850;2024-01-06T01:48:53;11.30;;;3.85;;
3941;SDS011;1985;48.592;8.850;2024-01-06T01:51:24;12.18;;;3.70;;
3941;SDS011;1985;48.592;8.850;2024-01-06T01:53:58;13.00;;;3.50;;
3941;SDS011;1985;48.592;8.850;2024-01-06T01:56:26;11.52;;;3.30;;
3941;SDS011;1985;48.592;8.850;2024-01-06T01:58:51;10.70;;;2.80;;
3941;SDS011;1985;48.592;8.850;2024-01-06T02:01:18;12.98;;;2.90;;
3941;SDS011;1985;48.592;8.850;2024-01-06T02:03:44;10.38;;;2.13;;
3941;SDS011;1985;48.592;8.850;2024-01-06T02:06:10;9.05;;;2.08;;
3941;SDS011;1985;48.592;8.850;2024-01-06T02:08:37;9.23;;;2.20;;
3941;SDS011;1985;48.592;8.850;2024-01-06T02:11:03;13.63;;;2.40;;
3941;SDS011;1985;48.592;8.850;2024-01-06T02:13:36;10.30;;;2.40;;
3941;SDS011;1985;48.592;8.850;2024-01-06T02:16:03;12.82;;;2.60;;
3941;SDS011;1985;48.592;8.850;2024-01-06T02:18:29;11.95;;;2.15;;
3941;SDS011;1985;48.592;8.850;2024-01-06T02:20:57;8.97;;;2.30;;
3941;SDS011;1985;48.592;8.850;2024-01-06T02:23:24;9.07;;;2.15;;
3941;SDS011;1985;48.592;8.850;2024-01-06T02:25:50;12.05;;;2.10;;
3941;SDS011;1985;48.592;8.850;2024-01-06T02:28:16;12.50;;;2.42;;
3941;SDS011;1985;48.592;8.850;2024-01-06T02:30:42;10.80;;;2.40;;
3941;SDS011;1985;48.592;8.850;2024-01-06T02:33:08;8.48;;;1.95;;
3941;SDS011;1985;48.592;8.850;2024-01-06T02:35:33;9.35;;;1.92;;
3941;SDS011;1985;48.592;8.850;2024-01-06T02:37:59;9.57;;;2.50;;
3941;SDS011;1985;48.592;8.850;2024-01-06T02:40:25;12.32;;;2.40;;
3941;SDS011;1985;48.592;8.850;2024-01-06T02:42:51;12.47;;;2.20;;
3941;SDS011;1985;48.592;8.850;2024-01-06T02:45:17;10.80;;;2.30;;
3941;SDS011;1985;48.592;8.850;2024-01-06T02:47:42;8.50;;;1.90;;
3941;SDS011;1985;48.592;8.850;2024-01-06T02:50:08;9.30;;;1.90;;
3941;SDS011;1985;48.592;8.850;2024-01-06T02:52:34;9.30;;;2.00;;
3941;SDS011;1985;48.592;8.850;2024-01-06T02:54:59;10.40;;;2.00;;
3941;SDS011;1985;48.592;8.850;2024-01-06T02:57:26;11.40;;;2.15;;
3941;SDS011;1985;48.592;8.850;2024-01-06T02:59:53;8.45;;;1.70;;
3941;SDS011;1985;48.592;8.850;2024-01-06T03:02:20;11.97;;;2.17;;
3941;SDS011;1985;48.592;8.850;2024-01-06T03:04:46;11.00;;;1.77;;
3941;SDS011;1985;48.592;8.850;2024-01-06T03:07:12;10.90;;;1.90;;
3941;SDS011;1985;48.592;8.850;2024-01-06T03:09:37;8.50;;;1.70;;
3941;SDS011;1985;48.592;8.850;2024-01-06T03:12:06;9.23;;;2.30;;
3941;SDS011;1985;48.592;8.850;2024-01-06T03:14:33;12.60;;;2.10;;
3941;SDS011;1985;48.592;8.850;2024-01-06T03:16:59;10.85;;;1.50;;
3941;SDS011;1985;48.592;8.850;2024-01-06T03:19:25;8.60;;;2.13;;
3941;SDS011;1985;48.592;8.850;2024-01-06T03:21:52;12.18;;;2.20;;
3941;SDS011;1985;48.592;8.850;2024-01-06T03:24:18;8.00;;;2.00;;
3941;SDS011;1985;48.592;8.850;2024-01-06T03:26:44;9.00;;;2.30;;
3941;SDS011;1985;48.592;8.850;2024-01-06T03:29:10;9.50;;;2.10;;
3941;SDS011;1985;48.592;8.850;2024-01-06T03:31:36;9.80;;;2.00;;
3941;SDS011;1985;48.592;8.850;2024-01-06T03:34:02;10.50;;;2.05;;
3941;SDS011;1985;48.592;8.850;2024-01-06T03:36:28;7.70;;;1.83;;
3941;SDS011;1985;48.592;8.850;2024-01-06T03:38:53;10.68;;;1.85;;
3941;SDS011;1985;48.592;8.850;2024-01-06T03:41:19;8.20;;;1.70;;
3941;SDS011;1985;48.592;8.850;2024-01-06T03:43:45;10.57;;;2.10;;
3941;SDS011;1985;48.592;8.850;2024-01-06T03:46:10;11.50;;;2.05;;
3941;SDS011;1985;48.592;8.850;2024-01-06T03:48:36;9.20;;;1.93;;
3941;SDS011;1985;48.592;8.850;2024-01-06T03:51:02;9.95;;;1.80;;
3941;SDS011;1985;48.592;8.850;2024-01-06T03:53:28;9.40;;;1.70;;
3941;SDS011;1985;48.592;8.850;2024-01-06T03:55:53;7.75;;;1.50;;
3941;SDS011;1985;48.592;8.850;2024-01-06T03:58:19;7.97;;;1.30;;
3941;SDS011;1985;48.592;8.850;2024-01-06T04:00:45;7.93;;;1.50;;
3941;SDS011;1985;48.592;8.850;2024-01-06T04:03:10;11.23;;;1.70;;
3941;SDS011;1985;48.592;8.850;2024-01-06T04:05:36;7.83;;;1.50;;
3941;SDS011;1985;48.592;8.850;2024-01-06T04:08:02;9.55;;;1.73;;
3941;SDS011;1985;48.592;8.850;2024-01-06T04:10:27;8.33;;;1.63;;
3941;SDS011;1985;48.592;8.850;2024-01-06T04:12:53;8.32;;;1.80;;
3941;SDS011;1985;48.592;8.850;2024-01-06T04:15:19;8.23;;;1.50;;
3941;SDS011;1985;48.592;8.850;2024-01-06T04:17:49;9.40;;;1.77;;
3941;SDS011;1985;48.592;8.850;2024-01-06T04:20:15;9.80;;;1.67;;
3941;SDS011;1985;48.592;8.850;2024-01-06T04:22:40;8.30;;;1.80;;
3941;SDS011;1985;48.592;8.850;2024-01-06T04:25:06;8.93;;;1.50;;
3941;SDS011;1985;48.592;8.850;2024-01-06T04:27:32;8.10;;;1.40;;
3941;SDS011;1985;48.592;8.850;2024-01-06T04:29:59;9.23;;;1.63;;
3941;SDS011;1985;48.592;8.850;2024-01-06T04:32:24;7.60;;;1.30;;
3941;SDS011;1985;48.592;8.850;2024-01-06T04:34:50;7.97;;;1.30;;
3941;SDS011;1985;48.592;8.850;2024-01-06T04:37:16;8.97;;;1.50;;
3941;SDS011;1985;48.592;8.850;2024-01-06T04:39:41;9.27;;;1.80;;
3941;SDS011;1985;48.592;8.850;2024-01-06T04:42:07;9.37;;;1.40;;
3941;SDS011;1985;48.592;8.850;2024-01-06T04:44:33;8.20;;;1.60;;
3941;SDS011;1985;48.592;8.850;2024-01-06T04:46:58;7.65;;;1.20;;
3941;SDS011;1985;48.592;8.850;2024-01-06T04:49:24;10.70;;;1.60;;
3941;SDS011;1985;48.592;8.850;2024-01-06T04:51:50;9.93;;;1.70;;
3941;SDS011;1985;48.592;8.850;2024-01-06T04:54:15;8.43;;;1.60;;
3941;SDS011;1985;48.592;8.850;2024-01-06T04:56:41;8.97;;;1.30;;
3941;SDS011;1985;48.592;8.850;2024-01-06T04:59:06;7.20;;;1.25;;
3941;SDS011;1985;48.592;8.850;2024-01-06T05:01:32;8.10;;;1.27;;
3941;SDS011;1985;48.592;8.850;2024-01-06T05:03:58;8.33;;;1.90;;
3941;SDS011;1985;48.592;8.850;2024-01-06T05:06:24;10.73;;;1.60;;
3941;SDS011;1985;48.592;8.850;2024-01-06T05:08:49;9.48;;;1.80;;
3941;SDS011;1985;48.592;8.850;2024-01-06T05:11:15;10.75;;;1.42;;
3941;SDS011;1985;48.592;8.850;2024-01-06T05:13:41;7.40;;;1.40;;
3941;SDS011;1985;48.592;8.850;2024-01-06T05:16:07;8.63;;;1.35;;
3941;SDS011;1985;48.592;8.850;2024-01-06T05:18:33;11.60;;;1.65;;
3941;SDS011;1985;48.592;8.850;2024-01-06T05:20:59;9.35;;;1.75;;
3941;SDS011;1985;48.592;8.850;2024-01-06T05:23:26;13.25;;;1.38;;
3941;SDS011;1985;48.592;8.850;2024-01-06T05:25:52;10.95;;;1.42;;
3941;SDS011;1985;48.592;8.850;2024-01-06T05:28:17;8.13;;;1.50;;
3941;SDS011;1985;48.592;8.850;2024-01-06T05:30:43;9.80;;;1.70;;
3941;SDS011;1985;48.592;8.850;2024-01-06T05:33:12;7.47;;;1.33;;
3941;SDS011;1985;48.592;8.850;2024-01-06T05:35:40;8.68;;;1.50;;
3941;SDS011;1985;48.592;8.850;2024-01-06T05:38:06;9.57;;;1.70;;
3941;SDS011;1985;48.592;8.850;2024-01-06T05:40:32;7.28;;;1.52;;
3941;SDS011;1985;48.592;8.850;2024-01-06T05:42:57;9.90;;;1.73;;
3941;SDS011;1985;48.592;8.850;2024-01-06T05:45:23;11.63;;;1.63;;
3941;SDS011;1985;48.592;8.850;2024-01-06T05:47:49;10.60;;;1.70;;
3941;SDS011;1985;48.592;8.850;2024-01-06T05:50:15;8.33;;;1.63;;
3941;SDS011;1985;48.592;8.850;2024-01-06T05:52:41;7.90;;;1.90;;
3941;SDS011;1985;48.592;8.850;2024-01-06T05:55:07;8.13;;;1.40;;
3941;SDS011;1985;48.592;8.850;2024-01-06T05:57:33;9.50;;;1.70;;
3941;SDS011;1985;48.592;8.850;2024-01-06T05:59:59;9.93;;;1.40;;
3941;SDS011;1985;48.592;8.850;2024-01-06T06:02:25;11.63;;;1.92;;
3941;SDS011;1985;48.592;8.850;2024-01-06T06:04:51;8.83;;;1.70;;
3941;SDS011;1985;48.592;8.850;2024-01-06T06:07:17;7.30;;;1.42;;
3941;SDS011;1985;48.592;8.850;2024-01-06T06:09:43;7.95;;;1.70;;
3941;SDS011;1985;48.592;8.850;2024-01-06T06:12:12;9.65;;;1.98;;
3941;SDS011;1985;48.592;8.850;2024-01-06T06:14:38;10.20;;;1.63;;
3941;SDS011;1985;48.592;8.850;2024-01-06T06:17:04;11.97;;;1.90;;
3941;SDS011;1985;48.592;8.850;2024-01-06T06:19:29;8.20;;;1.70;;
3941;SDS011;1985;48.592;8.850;2024-01-06T06:21:55;7.90;;;1.77;;
3941;SDS011;1985;48.592;8.850;2024-01-06T06:24:20;7.97;;;1.60;;
3941;SDS011;1985;48.592;8.850;2024-01-06T06:26:46;9.68;;;1.70;;
3941;SDS011;1985;48.592;8.850;2024-01-06T06:29:12;9.07;;;1.70;;
3941;SDS011;1985;48.592;8.850;2024-01-06T06:31:37;8.10;;;1.70;;
3941;SDS011;1985;48.592;8.850;2024-01-06T06:34:03;12.25;;;1.50;;
3941;SDS011;1985;48.592;8.850;2024-01-06T06:36:29;7.65;;;1.70;;
3941;SDS011;1985;48.592;8.850;2024-01-06T06:38:55;8.20;;;1.60;;
3941;SDS011;1985;48.592;8.850;2024-01-06T06:41:22;7.10;;;1.50;;
3941;SDS011;1985;48.592;8.850;2024-01-06T06:43:48;8.70;;;1.40;;
3941;SDS011;1985;48.592;8.850;2024-01-06T06:46:14;8.70;;;1.70;;
3941;SDS011;1985;48.592;8.850;2024-01-06T06:48:40;11.18;;;1.70;;
3941;SDS011;1985;48.592;8.850;2024-01-06T06:51:06;8.37;;;1.50;;
3941;SDS011;1985;48.592;8.850;2024-01-06T06:53:31;11.73;;;1.60;;
3941;SDS011;1985;48.592;8.850;2024-01-06T06:55:57;14.07;;;2.10;;
3941;SDS011;1985;48.592;8.850;2024-01-06T06:58:22;9.10;;;3.20;;
3941;SDS011;1985;48.592;8.850;2024-01-06T07:00:48;8.20;;;2.60;;
3941;SDS011;1985;48.592;8.850;2024-01-06T07:03:14;10.10;;;2.28;;
3941;SDS011;1985;48.592;8.850;2024-01-06T07:05:41;12.90;;;1.80;;
3941;SDS011;1985;48.592;8.850;2024-01-06T07:08:06;10.10;;;1.90;;
3941;SDS011;1985;48.592;8.850;2024-01-06T07:10:32;10.65;;;1.90;;
3941;SDS011;1985;48.592;8.850;2024-01-06T07:12:59;9.70;;;2.00;;
3941;SDS011;1985;48.592;8.850;2024-01-06T07:15:25;10.30;;;2.00;;
3941;SDS011;1985;48.592;8.850;2024-01-06T07:17:50;9.83;;;1.77;;
3941;SDS011;1985;48.592;8.850;2024-01-06T07:20:16;9.30;;;1.70;;
3941;SDS011;1985;48.592;8.850;2024-01-06T07:22:42;10.95;;;1.95;;
3941;SDS011;1985;48.592;8.850;2024-01-06T07:25:07;8.33;;;2.00;;
3941;SDS011;1985;48.592;8.850;2024-01-06T07:27:33;9.55;;;2.50;;
3941;SDS011;1985;48.592;8.850;2024-01-06T07:29:59;9.98;;;1.70;;
3941;SDS011;1985;48.592;8.850;2024-01-06T07:32:24;9.53;;;1.67;;
3941;SDS011;1985;48.592;8.850;2024-01-06T07:34:50;11.30;;;1.38;;
3941;SDS011;1985;48.592;8.850;2024-01-06T07:37:16;10.30;;;1.40;;
3941;SDS011;1985;48.592;8.850;2024-01-06T07:39:42;7.07;;;1.30;;
3941;SDS011;1985;48.592;8.850;2024-01-06T07:42:08;9.15;;;1.55;;
3941;SDS011;1985;48.592;8.850;2024-01-06T07:44:33;9.80;;;1.40;;
3941;SDS011;1985;48.592;8.850;2024-01-06T07:46:59;7.10;;;1.60;;
3941;SDS011;1985;48.592;8.850;2024-01-06T07:49:27;8.15;;;1.40;;
3941;SDS011;1985;48.592;8.850;2024-01-06T07:51:52;7.90;;;2.00;;
3941;SDS011;1985;48.592;8.850;2024-01-06T07:54:18;8.25;;;1.60;;
3941;SDS011;1985;48.592;8.850;2024-01-06T07:56:43;8.82;;;1.50;;
3941;SDS011;1985;48.592;8.850;2024-01-06T07:59:10;10.07;;;2.13;;
3941;SDS011;1985;48.592;8.850;2024-01-06T08:01:36;8.60;;;1.60;;
3941;SDS011;1985;48.592;8.850;2024-01-06T08:04:01;7.25;;;1.30;;
3941;SDS011;1985;48.592;8.850;2024-01-06T08:06:27;7.40;;;1.40;;
3941;SDS011;1985;48.592;8.850;2024-01-06T08:08:53;6.93;;;1.30;;
3941;SDS011;1985;48.592;8.850;2024-01-06T08:11:19;9.07;;;1.60;;
3941;SDS011;1985;48.592;8.850;2024-01-06T08:13:46;7.30;;;1.50;;
3941;SDS011;1985;48.592;8.850;2024-01-06T08:16:12;10.52;;;1.90;;
3941;SDS011;1985;48.592;8.850;2024-01-06T08:18:37;7.83;;;1.67;;
3941;SDS011;1985;48.592;8.850;2024-01-06T08:21:03;10.60;;;2.13;;
3941;SDS011;1985;48.592;8.850;2024-01-06T08:23:29;7.18;;;1.30;;
3941;SDS011;1985;48.592;8.850;2024-01-06T08:25:54;7.67;;;1.40;;
3941;SDS011;1985;48.592;8.850;2024-01-06T08:28:20;8.70;;;2.13;;
3941;SDS011;1985;48.592;8.850;2024-01-06T08:30:48;7.78;;;1.90;;
3941;SDS011;1985;48.592;8.850;2024-01-06T08:33:14;9.18;;;1.90;;
3941;SDS011;1985;48.592;8.850;2024-01-06T08:35:39;7.88;;;2.00;;
3941;SDS011;1985;48.592;8.850;2024-01-06T08:38:06;9.00;;;2.20;;
3941;SDS011;1985;48.592;8.850;2024-01-06T08:40:32;9.43;;;2.20;;
3941;SDS011;1985;48.592;8.850;2024-01-06T08:42:58;8.32;;;1.60;;
3941;SDS011;1985;48.592;8.850;2024-01-06T08:45:24;8.20;;;1.70;;
3941;SDS011;1985;48.592;8.850;2024-01-06T08:47:50;7.90;;;1.90;;
3941;SDS011;1985;48.592;8.850;2024-01-06T08:50:15;7.20;;;1.58;;
3941;SDS011;1985;48.592;8.850;2024-01-06T08:52:41;8.40;;;1.90;;
3941;SDS011;1985;48.592;8.850;2024-01-06T08:55:07;9.00;;;1.60;;
3941;SDS011;1985;48.592;8.850;2024-01-06T08:57:33;8.15;;;1.90;;
3941;SDS011;1985;48.592;8.850;2024-01-06T08:59:58;7.72;;;2.00;;
3941;SDS011;1985;48.592;8.850;2024-01-06T09:02:24;11.37;;;2.90;;
3941;SDS011;1985;48.592;8.850;2024-01-06T09:04:50;11.65;;;3.67;;
3941;SDS011;1985;48.592;8.850;2024-01-06T09:07:15;9.50;;;2.90;;
3941;SDS011;1985;48.592;8.850;2024-01-06T09:09:42;9.55;;;2.38;;
3941;SDS011;1985;48.592;8.850;2024-01-06T09:12:08;9.05;;;1.90;;
3941;SDS011;1985;48.592;8.850;2024-01-06T09:14:34;7.32;;;1.30;;
3941;SDS011;1985;48.592;8.850;2024-01-06T09:17:00;6.70;;;1.27;;
3941;SDS011;1985;48.592;8.850;2024-01-06T09:19:25;9.02;;;1.80;;
3941;SDS011;1985;48.592;8.850;2024-01-06T09:21:53;8.88;;;1.38;;
3941;SDS011;1985;48.592;8.850;2024-01-06T09:24:19;7.00;;;1.40;;
3941;SDS011;1985;48.592;8.850;2024-01-06T09:26:45;7.60;;;1.30;;
3941;SDS011;1985;48.592;8.850;2024-01-06T09:29:11;9.30;;;1.20;;
3941;SDS011;1985;48.592;8.850;2024-01-06T09:31:37;8.60;;;1.20;;
3941;SDS011;1985;48.592;8.850;2024-01-06T09:34:03;7.55;;;1.40;;
3941;SDS011;1985;48.592;8.850;2024-01-06T09:36:30;7.25;;;1.40;;
3941;SDS011;1985;48.592;8.850;2024-01-06T09:38:56;10.75;;;1.70;;
3941;SDS011;1985;48.592;8.850;2024-01-06T09:41:22;6.90;;;1.10;;
3941;SDS011;1985;48.592;8.850;2024-01-06T09:43:49;7.05;;;1.40;;
3941;SDS011;1985;48.592;8.850;2024-01-06T09:46:17;8.23;;;1.42;;
3941;SDS011;1985;48.592;8.850;2024-01-06T09:48:46;7.53;;;1.40;;
3941;SDS011;1985;48.592;8.850;2024-01-06T09:51:15;10.50;;;3.30;;
3941;SDS011;1985;48.592;8.850;2024-01-06T09:54:14;10.20;;;1.80;;
3941;SDS011;1985;48.592;8.850;2024-01-06T09:56:34;7.60;;;1.77;;
3941;SDS011;1985;48.592;8.850;2024-01-06T09:59:01;7.55;;;1.70;;
3941;SDS011;1985;48.592;8.850;2024-01-06T10:01:27;7.38;;;1.40;;
3941;SDS011;1985;48.592;8.850;2024-01-06T10:03:52;18.85;;;6.70;;
3941;SDS011;1985;48.592;8.850;2024-01-06T10:06:18;12.50;;;4.40;;
3941;SDS011;1985;48.592;8.850;2024-01-06T10:08:48;9.00;;;2.80;;
3941;SDS011;1985;48.592;8.850;2024-01-06T10:11:15;8.80;;;2.20;;
3941;SDS011;1985;48.592;8.850;2024-01-06T10:13:40;7.53;;;1.95;;
3941;SDS011;1985;48.592;8.850;2024-01-06T10:16:06;7.93;;;1.48;;
3941;SDS011;1985;48.592;8.850;2024-01-06T10:18:32;9.50;;;1.20;;
3941;SDS011;1985;48.592;8.850;2024-01-06T10:21:00;7.30;;;1.30;;
3941;SDS011;1985;48.592;8.850;2024-01-06T10:23:29;6.63;;;1.02;;
3941;SDS011;1985;48.592;8.850;2024-01-06T10:25:57;6.50;;;1.00;;
3941;SDS011;1985;48.592;8.850;2024-01-06T10:28:23;6.20;;;1.00;;
3941;SDS011;1985;48.592;8.850;2024-01-06T10:30:52;6.72;;;1.35;;
3941;SDS011;1985;48.592;8.850;2024-01-06T10:33:19;8.13;;;1.80;;
3941;SDS011;1985;48.592;8.850;2024-01-06T10:35:46;10.88;;;3.50;;
3941;SDS011;1985;48.592;8.850;2024-01-06T10:38:12;11.02;;;4.50;;
3941;SDS011;1985;48.592;8.850;2024-01-06T10:40:40;11.88;;;3.78;;
3941;SDS011;1985;48.592;8.850;2024-01-06T10:43:21;8.53;;;2.20;;
3941;SDS011;1985;48.592;8.850;2024-01-06T10:45:48;10.13;;;2.10;;
3941;SDS011;1985;48.592;8.850;2024-01-06T10:48:15;8.10;;;1.80;;
3941;SDS011;1985;48.592;8.850;2024-01-06T10:50:43;8.32;;;2.20;;
3941;SDS011;1985;48.592;8.850;2024-01-06T10:53:09;8.07;;;2.10;;
3941;SDS011;1985;48.592;8.850;2024-01-06T10:55:38;8.50;;;1.80;;
3941;SDS011;1985;48.592;8.850;2024-01-06T10:58:06;7.53;;;2.00;;
3941;SDS011;1985;48.592;8.850;2024-01-06T11:00:32;7.85;;;1.40;;
3941;SDS011;1985;48.592;8.850;2024-01-06T11:02:58;9.53;;;2.40;;
3941;SDS011;1985;48.592;8.850;2024-01-06T11:05:25;6.95;;;1.30;;
3941;SDS011;1985;48.592;8.850;2024-01-06T11:07:52;7.15;;;1.40;;
3941;SDS011;1985;48.592;8.850;2024-01-06T11:10:24;6.63;;;1.20;;
3941;SDS011;1985;48.592;8.850;2024-01-06T11:13:11;6.40;;;1.00;;
3941;SDS011;1985;48.592;8.850;2024-01-06T11:15:38;7.10;;;1.30;;
3941;SDS011;1985;48.592;8.850;2024-01-06T11:18:08;7.50;;;1.17;;
3941;SDS011;1985;48.592;8.850;2024-01-06T11:20:34;8.95;;;1.17;;
3941;SDS011;1985;48.592;8.850;2024-01-06T11:23:19;6.40;;;1.00;;
3941;SDS011;1985;48.592;8.850;2024-01-06T11:25:45;7.20;;;1.08;;
3941;SDS011;1985;48.592;8.850;2024-01-06T11:28:11;6.40;;;1.20;;
3941;SDS011;1985;48.592;8.850;2024-01-06T11:30:37;7.57;;;1.33;;
3941;SDS011;1985;48.592;8.850;2024-01-06T11:33:04;6.82;;;1.20;;
3941;SDS011;1985;48.592;8.850;2024-01-06T11:35:30;10.82;;;3.40;;
3941;SDS011;1985;48.592;8.850;2024-01-06T11:38:06;6.90;;;1.30;;
3941;SDS011;1985;48.592;8.850;2024-01-06T11:40:33;6.70;;;1.40;;
3941;SDS011;1985;48.592;8.850;2024-01-06T11:43:11;6.80;;;1.30;;
3941;SDS011;1985;48.592;8.850;2024-01-06T11:45:38;6.60;;;1.10;;
3941;SDS011;1985;48.592;8.850;2024-01-06T11:48:09;6.53;;;0.90;;
3941;SDS011;1985;48.592;8.850;2024-01-06T11:50:39;6.40;;;1.10;;
3941;SDS011;1985;48.592;8.850;2024-01-06T11:53:05;6.50;;;1.08;;
3941;SDS011;1985;48.592;8.850;2024-01-06T11:55:34;7.18;;;1.45;;
3941;SDS011;1985;48.592;8.850;2024-01-06T11:58:01;6.60;;;1.13;;
3941;SDS011;1985;48.592;8.850;2024-01-06T12:00:28;7.55;;;0.90;;
3941;SDS011;1985;48.592;8.850;2024-01-06T12:02:57;6.57;;;0.90;;
3941;SDS011;1985;48.592;8.850;2024-01-06T12:05:23;6.60;;;1.00;;
3941;SDS011;1985;48.592;8.850;2024-01-06T12:07:57;6.50;;;1.20;;
3941;SDS011;1985;48.592;8.850;2024-01-06T12:10:24;6.50;;;1.05;;
3941;SDS011;1985;48.592;8.850;2024-01-06T12:15:24;6.40;;;0.90;;
3941;SDS011;1985;48.592;8.850;2024-01-06T12:17:49;7.10;;;1.20;;
3941;SDS011;1985;48.592;8.850;2024-01-06T12:20:15;7.78;;;1.10;;
3941;SDS011;1985;48.592;8.850;2024-01-06T12:22:41;6.75;;;1.08;;
3941;SDS011;1985;48.592;8.850;2024-01-06T12:25:08;6.88;;;1.10;;
3941;SDS011;1985;48.592;8.850;2024-01-06T12:27:34;6.80;;;1.10;;
3941;SDS011;1985;48.592;8.850;2024-01-06T12:30:00;6.50;;;1.00;;
3941;SDS011;1985;48.592;8.850;2024-01-06T12:32:26;6.95;;;1.10;;
3941;SDS011;1985;48.592;8.850;2024-01-06T12:34:52;7.20;;;0.90;;
3941;SDS011;1985;48.592;8.850;2024-01-06T12:37:18;6.80;;;1.10;;
3941;SDS011;1985;48.592;8.850;2024-01-06T12:39:43;7.30;;;0.90;;
3941;SDS011;1985;48.592;8.850;2024-01-06T12:42:14;6.50;;;1.10;;
3941;SDS011;1985;48.592;8.850;2024-01-06T12:44:41;6.80;;;1.20;;
3941;SDS011;1985;48.592;8.850;2024-01-06T12:47:07;7.23;;;1.10;;
3941;SDS011;1985;48.592;8.850;2024-01-06T12:49:33;6.55;;;0.93;;
3941;SDS011;1985;48.592;8.850;2024-01-06T12:51:59;6.40;;;0.90;;
3941;SDS011;1985;48.592;8.850;2024-01-06T12:54:25;6.40;;;0.90;;
3941;SDS011;1985;48.592;8.850;2024-01-06T12:56:50;7.50;;;1.00;;
3941;SDS011;1985;48.592;8.850;2024-01-06T12:59:16;6.60;;;0.70;;
3941;SDS011;1985;48.592;8.850;2024-01-06T13:01:42;6.43;;;0.90;;
3941;SDS011;1985;48.592;8.850;2024-01-06T13:04:08;6.30;;;0.80;;
3941;SDS011;1985;48.592;8.850;2024-01-06T13:06:34;6.60;;;0.97;;
3941;SDS011;1985;48.592;8.850;2024-01-06T13:08:59;6.40;;;0.90;;
3941;SDS011;1985;48.592;8.850;2024-01-06T13:11:31;6.35;;;0.90;;
3941;SDS011;1985;48.592;8.850;2024-01-06T13:13:57;6.20;;;0.80;;
3941;SDS011;1985;48.592;8.850;2024-01-06T13:16:23;6.60;;;0.90;;
3941;SDS011;1985;48.592;8.850;2024-01-06T13:18:49;7.00;;;0.90;;
3941;SDS011;1985;48.592;8.850;2024-01-06T13:21:14;6.50;;;0.90;;
3941;SDS011;1985;48.592;8.850;2024-01-06T13:23:40;7.03;;;1.50;;
3941;SDS011;1985;48.592;8.850;2024-01-06T13:26:06;6.60;;;1.10;;
3941;SDS011;1985;48.592;8.850;2024-01-06T13:28:33;6.50;;;0.80;;
3941;SDS011;1985;48.592;8.850;2024-01-06T13:30:59;6.50;;;0.77;;
3941;SDS011;1985;48.592;8.850;2024-01-06T13:33:25;6.22;;;0.90;;
3941;SDS011;1985;48.592;8.850;2024-01-06T13:35:51;6.30;;;0.90;;
3941;SDS011;1985;48.592;8.850;2024-01-06T13:38:17;6.20;;;0.80;;
3941;SDS011;1985;48.592;8.850;2024-01-06T13:40:42;6.50;;;0.90;;
3941;SDS011;1985;48.592;8.850;2024-01-06T13:43:08;6.30;;;1.00;;
3941;SDS011;1985;48.592;8.850;2024-01-06T13:45:40;6.20;;;0.80;;
3941;SDS011;1985;48.592;8.850;2024-01-06T13:48:07;6.47;;;0.90;;
3941;SDS011;1985;48.592;8.850;2024-01-06T13:50:32;6.10;;;0.80;;
3941;SDS011;1985;48.592;8.850;2024-01-06T13:52:58;6.63;;;1.00;;
3941;SDS011;1985;48.592;8.850;2024-01-06T13:55:25;6.10;;;0.90;;
3941;SDS011;1985;48.592;8.850;2024-01-06T13:57:50;6.30;;;0.90;;
3941;SDS011;1985;48.592;8.850;2024-01-06T14:00:16;6.10;;;0.80;;
3941;SDS011;1985;48.592;8.850;2024-01-06T14:02:44;6.20;;;0.90;;
3941;SDS011;1985;48.592;8.850;2024-01-06T14:05:12;6.25;;;0.80;;
3941;SDS011;1985;48.592;8.850;2024-01-06T14:07:38;6.20;;;0.80;;
3941;SDS011;1985;48.592;8.850;2024-01-06T14:10:05;6.40;;;1.00;;
3941;SDS011;1985;48.592;8.850;2024-01-06T14:12:31;6.70;;;0.90;;
3941;SDS011;1985;48.592;8.850;2024-01-06T14:14:57;8.00;;;0.90;;
3941;SDS011;1985;48.592;8.850;2024-01-06T14:17:23;6.70;;;1.00;;
3941;SDS011;1985;48.592;8.850;2024-01-06T14:19:49;7.40;;;0.95;;
3941;SDS011;1985;48.592;8.850;2024-01-06T14:22:15;6.50;;;1.00;;
3941;SDS011;1985;48.592;8.850;2024-01-06T14:24:42;6.50;;;0.98;;
3941;SDS011;1985;48.592;8.850;2024-01-06T14:27:08;7.00;;;1.10;;
3941;SDS011;1985;48.592;8.850;2024-01-06T14:29:33;7.03;;;1.20;;
3941;SDS011;1985;48.592;8.850;2024-01-06T14:31:59;6.50;;;1.00;;
3941;SDS011;1985;48.592;8.850;2024-01-06T14:34:25;6.40;;;1.00;;
3941;SDS011;1985;48.592;8.850;2024-01-06T14:36:51;6.50;;;1.10;;
3941;SDS011;1985;48.592;8.850;2024-01-06T14:39:17;6.80;;;1.20;;
3941;SDS011;1985;48.592;8.850;2024-01-06T14:41:46;6.40;;;1.02;;
3941;SDS011;1985;48.592;8.850;2024-01-06T14:44:12;6.72;;;1.05;;
3941;SDS011;1985;48.592;8.850;2024-01-06T14:46:38;6.60;;;1.17;;
3941;SDS011;1985;48.592;8.850;2024-01-06T14:49:04;6.50;;;1.00;;
3941;SDS011;1985;48.592;8.850;2024-01-06T14:51:29;6.53;;;0.93;;
3941;SDS011;1985;48.592;8.850;2024-01-06T14:53:55;6.43;;;1.00;;
3941;SDS011;1985;48.592;8.850;2024-01-06T14:56:22;7.70;;;1.60;;
3941;SDS011;1985;48.592;8.850;2024-01-06T14:58:49;6.50;;;1.10;;
3941;SDS011;1985;48.592;8.850;2024-01-06T15:01:14;6.80;;;1.10;;
3941;SDS011;1985;48.592;8.850;2024-01-06T15:03:40;6.82;;;1.15;;
3941;SDS011;1985;48.592;8.850;2024-01-06T15:06:05;9.13;;;1.95;;
3941;SDS011;1985;48.592;8.850;2024-01-06T15:08:31;9.80;;;2.30;;